Gao Qiang — VRVQ8 — position and weather

sailwx.info

Track history (hours):
 
Tides and Currents Weather Stations Pressure Air Temp Water Temp Dewpoint Dewpoint Depression Visibility Wind Speed Wind Dir Waves Ship Positions

Gao Qiang

Last reported at 2017-Apr-21 16:47 UTC. Time now 2017-Apr-30 18:50 UTC.
Position N 10°49' W 020°00'.
Warning: this ship's position is 9 days out of date.

Length 186 m; draft 11 m.

Type: Cargo ship. MMSI: 477611000.

Date/timePositionNaut miles runAvg speedWind from/ knotsBaromVisibWave heightAir tempDewpointWater temp
2017-Apr-21 16:47N 10°49' W 020°00'413.7
2017-Apr-21 16:30N 10°53' W 020°00'  
2017-Apr-18 10:33N 26°53' W 015°43'412.3
2017-Apr-18 10:13N 26°57' W 015°41'512.1
2017-Apr-18 09:49N 27°01' W 015°38'412.5
2017-Apr-18 09:29N 27°05' W 015°36'612.8
2017-Apr-18 09:00N 27°10' W 015°33'913.1
2017-Apr-18 08:19N 27°18' W 015°28'1813.5
2017-Apr-18 06:57N 27°34' W 015°18'612.8
2017-Apr-18 06:30N 27°39' W 015°16'613.0
2017-Apr-18 06:00N 27°46' W 015°16'713.1
2017-Apr-18 05:30N 27°52' W 015°16'713.3
2017-Apr-18 05:00N 27°59' W 015°16'613.0
2017-Apr-18 04:30N 28°04' W 015°21'3 6.8
2017-Apr-18 04:00N 28°06' W 015°24'0 0.2
2017-Apr-18 03:19N 28°06' W 015°24'0 0.0
2017-Apr-18 02:52N 28°06' W 015°24'0 0.0
2017-Apr-18 02:28N 28°06' W 015°24'0 0.0
2017-Apr-18 01:52N 28°06' W 015°24'0 0.0
2017-Apr-18 01:25N 28°06' W 015°24'0 0.1
2017-Apr-18 00:55N 28°06' W 015°24'0 0.0
2017-Apr-18 00:28N 28°06' W 015°24'0 0.0
2017-Apr-17 23:55N 28°06' W 015°24'0 0.0
2017-Apr-17 23:25N 28°06' W 015°24'0 0.0
2017-Apr-17 22:52N 28°06' W 015°24'0 0.1
2017-Apr-17 22:28N 28°06' W 015°24'0 0.0
2017-Apr-17 21:58N 28°06' W 015°24'0 0.0
2017-Apr-17 21:28N 28°06' W 015°24'0 0.0
2017-Apr-17 20:58N 28°06' W 015°24'0 0.0
2017-Apr-17 20:28N 28°06' W 015°24'0 0.0
2017-Apr-17 19:58N 28°06' W 015°24'0 0.0
2017-Apr-17 19:28N 28°06' W 015°24'0 0.0
2017-Apr-17 18:58N 28°06' W 015°24'0 0.2
2017-Apr-17 18:28N 28°06' W 015°24'1 1.9
2017-Apr-17 18:00N 28°06' W 015°23'0 0.9
2017-Apr-17 17:30N 28°06' W 015°23'0 0.7
2017-Apr-17 17:00N 28°07' W 015°23'0 0.9
2017-Apr-17 16:30N 28°07' W 015°22'4 8.8
2017-Apr-17 16:00N 28°11' W 015°21'611.9
2017-Apr-17 15:30N 28°17' W 015°20'612.9
2017-Apr-17 15:00N 28°23' W 015°18'1313.1
2017-Apr-17 14:00N 28°36' W 015°13'713.0
2017-Apr-17 13:30N 28°42' W 015°11'613.0
2017-Apr-17 13:01N 28°48' W 015°09'712.9
2017-Apr-17 12:30N 28°54' W 015°07'612.8
2017-Apr-17 12:00N 29°01' W 015°05'612.9
2017-Apr-17 11:30N 29°07' W 015°03'713.1
2017-Apr-17 11:00N 29°13' W 015°01'713.3
2017-Apr-17 10:31N 29°19' W 014°59'713.1
2017-Apr-17 10:00N 29°26' W 014°56'612.9
2017-Apr-17 09:30N 29°32' W 014°54'612.7
2017-Apr-17 09:00N 29°38' W 014°52'612.6
2017-Apr-17 08:30N 29°44' W 014°50'612.7
2017-Apr-17 08:00N 29°50' W 014°48'613.0
2017-Apr-17 07:30N 29°56' W 014°46'613.1
2017-Apr-17 07:00N 30°03' W 014°44'713.1
2017-Apr-17 06:30N 30°09' W 014°42'713.2
2017-Apr-17 06:00N 30°15' W 014°39'713.1
2017-Apr-17 05:30N 30°21' W 014°37'713.2
2017-Apr-17 05:00N 30°28' W 014°35'713.1
2017-Apr-17 04:30N 30°34' W 014°33'713.2
2017-Apr-17 04:00N 30°40' W 014°31'1113.4
2017-Apr-17 03:09N 30°51' W 014°27'213.5
2017-Apr-17 03:00N 30°53' W 014°26'713.4
2017-Apr-17 02:30N 30°59' W 014°24'713.4
2017-Apr-17 02:00N 31°06' W 014°22'713.5
2017-Apr-17 01:30N 31°12' W 014°20'713.4
2017-Apr-17 01:00N 31°19' W 014°17'713.3
2017-Apr-17 00:30N 31°25' W 014°15'813.4
2017-Apr-16 23:56N 31°33' W 014°12'813.4
2017-Apr-16 23:20N 31°40' W 014°10'813.3
2017-Apr-16 22:46N 31°47' W 014°07'413.1
2017-Apr-16 22:29N 31°51' W 014°06'713.2
2017-Apr-16 21:58N 31°57' W 014°03'713.1
2017-Apr-16 21:27N 32°04' W 014°01'913.1
2017-Apr-16 20:47N 32°12' W 013°58'413.1
2017-Apr-16 20:30N 32°16' W 013°57'1413.2
2017-Apr-16 19:28N 32°29' W 013°53'613.0
2017-Apr-16 19:00N 32°35' W 013°51'612.8
2017-Apr-16 18:30N 32°41' W 013°48'612.9
2017-Apr-16 18:00N 32°47' W 013°46'612.7
2017-Apr-16 17:30N 32°53' W 013°44'612.7
2017-Apr-16 17:00N 32°59' W 013°42'612.6
2017-Apr-16 16:30N 33°05' W 013°40'612.6
2017-Apr-16 16:00N 33°11' W 013°37'1412.4
2017-Apr-16 14:51N 33°25' W 013°33'412.1
2017-Apr-16 14:30N 33°29' W 013°31'1212.2
2017-Apr-16 13:30N 33°41' W 013°27'612.4
2017-Apr-16 13:01N 33°47' W 013°25'612.6
2017-Apr-16 12:30N 33°53' W 013°23'2012.6
2017-Apr-16 10:56N 34°12' W 013°16'612.6
2017-Apr-16 10:26N 34°18' W 013°15'612.8
2017-Apr-16 10:00N 34°23' W 013°13'712.9
2017-Apr-16 09:27N 34°30' W 013°11'2212.9
2017-Apr-16 07:46N 34°51' W 013°05'513.2
2017-Apr-16 07:25N 34°56' W 013°04'513.3
2017-Apr-16 07:00N 35°01' W 013°02'713.4
2017-Apr-16 06:30N 35°08' W 013°00'713.4
2017-Apr-16 06:00N 35°14' W 012°58'713.1
2017-Apr-16 05:30N 35°21' W 012°57'713.2
2017-Apr-16 05:00N 35°27' W 012°55'713.4
2017-Apr-16 04:30N 35°34' W 012°52'3213.3
2017-Apr-16 02:07N 36°05' W 012°44'513.2
2017-Apr-16 01:44N 36°09' W 012°42'313.1
2017-Apr-16 01:30N 36°12' W 012°41'713.0
2017-Apr-16 01:00N 36°19' W 012°40'713.2
2017-Apr-16 00:30N 36°25' W 012°38'2013.3
2017-Apr-15 22:59N 36°45' W 012°32'713.3
2017-Apr-15 22:29N 36°51' W 012°30'1213.4
2017-Apr-15 21:35N 37°03' W 012°27'113.6
2017-Apr-15 21:30N 37°04' W 012°26'713.2
2017-Apr-15 20:56N 37°11' W 012°24'613.1
2017-Apr-15 20:28N 37°17' W 012°22'713.6
2017-Apr-15 19:56N 37°24' W 012°20'613.6
2017-Apr-15 19:29N 37°30' W 012°18'613.4
2017-Apr-15 19:00N 37°37' W 012°16'813.2
2017-Apr-15 18:26N 37°44' W 012°14'1312.9
2017-Apr-15 17:26N 37°57' W 012°11'612.9
2017-Apr-15 17:00N 38°02' W 012°09'712.9
2017-Apr-15 16:28N 38°09' W 012°07'65112.9
2017-Apr-13 13:59N 48°11' W 006°27'2613.2
2017-Apr-13 11:59N 48°33' W 006°06'2814.3
2017-Apr-13 09:59N 48°55' W 005°39'714.2
2017-Apr-13 09:29N 48°60' W 005°31'713.9
2017-Apr-13 08:59N 49°03' W 005°22'3112.4
2017-Apr-13 06:28N 49°19' W 004°40'511.3
2017-Apr-13 05:59N 49°22' W 004°33'611.2
2017-Apr-13 05:26N 49°25' W 004°25'1811.8
2017-Apr-13 03:54N 49°34' W 004°01'1613.2
2017-Apr-13 02:39N 49°42' W 003°38'314.0
2017-Apr-13 02:27N 49°43' W 003°34'614.3
2017-Apr-13 02:00N 49°46' W 003°26'714.5
2017-Apr-13 01:30N 49°50' W 003°16'714.6
2017-Apr-13 01:00N 49°53' W 003°06'714.1
2017-Apr-13 00:30N 49°56' W 002°56'713.5
2017-Apr-13 00:00N 49°59' W 002°46'712.7
2017-Apr-12 23:27N 50°01' W 002°36'8311.2
2017-Apr-12 16:03N 50°24' W 000°32'214.3
2017-Apr-12 15:54N 50°25' W 000°29'514.0
2017-Apr-12 15:30N 50°27' W 000°21'713.7
2017-Apr-12 15:00N 50°29' W 000°10'1313.1
2017-Apr-12 14:00N 50°33' E 000°09'612.7
2017-Apr-12 13:31N 50°35' E 000°19'612.3
2017-Apr-12 13:00N 50°37' E 000°28'611.8
2017-Apr-12 12:30N 50°39' E 000°37'611.3
2017-Apr-12 12:00N 50°42' E 000°44'511.0
2017-Apr-12 11:30N 50°45' E 000°51'510.8
2017-Apr-12 11:00N 50°48' E 000°58'611.1
2017-Apr-12 10:29N 50°52' E 001°05'611.8
2017-Apr-12 09:58N 50°56' E 001°12'612.8
2017-Apr-12 09:30N 51°00' E 001°19'714.2
2017-Apr-12 09:00N 51°05' E 001°28'815.7
2017-Apr-12 08:30N 51°10' E 001°37'815.5
2017-Apr-12 08:00N 51°17' E 001°42'714.3
2017-Apr-12 07:30N 51°24' E 001°45'713.3
2017-Apr-12 07:00N 51°31' E 001°45'612.6
2017-Apr-12 06:30N 51°37' E 001°45'612.1
2017-Apr-12 06:00N 51°43' E 001°44'611.7
2017-Apr-12 05:30N 51°49' E 001°43'5 9.6
2017-Apr-12 05:00N 51°48' E 001°36'612.4
2017-Apr-12 04:30N 51°43' E 001°29'713.7
2017-Apr-12 04:00N 51°38' E 001°22'714.0
2017-Apr-12 03:30N 51°34' E 001°13'713.2
2017-Apr-12 03:00N 51°31' E 001°04'611.8
2017-Apr-12 02:30N 51°29' E 000°54'612.7
2017-Apr-12 02:00N 51°30' E 000°44'611.9
2017-Apr-12 01:30N 51°30' E 000°35'5 9.2
2017-Apr-12 01:00N 51°29' E 000°28'4 7.0
2017-Apr-12 00:30N 51°27' E 000°23'2 3.8
2017-Apr-12 00:00N 51°27' E 000°20'0 0.6
2017-Apr-11 23:30N 51°27' E 000°21'0 0.6
2017-Apr-11 23:01N 51°27' E 000°21'0 0.5
2017-Apr-11 22:30N 51°28' E 000°21'0 0.0
2017-Apr-11 22:00N 51°28' E 000°21'0 0.0
2017-Apr-11 21:30N 51°28' E 000°21'0 0.0
2017-Apr-11 21:00N 51°28' E 000°21'0 0.0
2017-Apr-11 20:30N 51°28' E 000°21'0 0.0
2017-Apr-11 20:00N 51°28' E 000°21'0 0.0
2017-Apr-11 19:30N 51°28' E 000°21'0 0.0
2017-Apr-11 19:00N 51°28' E 000°21'0 0.0
2017-Apr-11 18:30N 51°28' E 000°21'0 0.0
2017-Apr-11 18:00N 51°28' E 000°21'0 0.0
2017-Apr-11 17:30N 51°28' E 000°21'0 0.0
2017-Apr-11 17:00N 51°28' E 000°21'  
Track history (hours):
 
Tides and Currents Weather Stations Pressure Air Temp Water Temp Dewpoint Dewpoint Depression Visibility Wind Speed Wind Dir Waves Ship Positions

Gao Qiang

Last reported at 2017-Apr-21 16:47 UTC. Time now 2017-Apr-30 18:50 UTC.
Position N 10°49' W 020°00'.
Warning: this ship's position is 9 days out of date.

Length 186 m; draft 11 m.

Type: Cargo ship. MMSI: 477611000.

Date/timePositionNaut miles runAvg speedWind from/ knotsBaromVisibWave heightAir tempDewpointWater temp
2017-Apr-21 16:47N 10°49' W 020°00'413.7
2017-Apr-21 16:30N 10°53' W 020°00'  
2017-Apr-18 10:33N 26°53' W 015°43'412.3
2017-Apr-18 10:13N 26°57' W 015°41'512.1
2017-Apr-18 09:49N 27°01' W 015°38'412.5
2017-Apr-18 09:29N 27°05' W 015°36'612.8
2017-Apr-18 09:00N 27°10' W 015°33'913.1
2017-Apr-18 08:19N 27°18' W 015°28'1813.5
2017-Apr-18 06:57N 27°34' W 015°18'612.8
2017-Apr-18 06:30N 27°39' W 015°16'613.0
2017-Apr-18 06:00N 27°46' W 015°16'713.1
2017-Apr-18 05:30N 27°52' W 015°16'713.3
2017-Apr-18 05:00N 27°59' W 015°16'613.0
2017-Apr-18 04:30N 28°04' W 015°21'3 6.8
2017-Apr-18 04:00N 28°06' W 015°24'0 0.2
2017-Apr-18 03:19N 28°06' W 015°24'0 0.0
2017-Apr-18 02:52N 28°06' W 015°24'0 0.0
2017-Apr-18 02:28N 28°06' W 015°24'0 0.0
2017-Apr-18 01:52N 28°06' W 015°24'0 0.0
2017-Apr-18 01:25N 28°06' W 015°24'0 0.1
2017-Apr-18 00:55N 28°06' W 015°24'0 0.0
2017-Apr-18 00:28N 28°06' W 015°24'0 0.0
2017-Apr-17 23:55N 28°06' W 015°24'0 0.0
2017-Apr-17 23:25N 28°06' W 015°24'0 0.0
2017-Apr-17 22:52N 28°06' W 015°24'0 0.1
2017-Apr-17 22:28N 28°06' W 015°24'0 0.0
2017-Apr-17 21:58N 28°06' W 015°24'0 0.0
2017-Apr-17 21:28N 28°06' W 015°24'0 0.0
2017-Apr-17 20:58N 28°06' W 015°24'0 0.0
2017-Apr-17 20:28N 28°06' W 015°24'0 0.0
2017-Apr-17 19:58N 28°06' W 015°24'0 0.0
2017-Apr-17 19:28N 28°06' W 015°24'0 0.0
2017-Apr-17 18:58N 28°06' W 015°24'0 0.2
2017-Apr-17 18:28N 28°06' W 015°24'1 1.9
2017-Apr-17 18:00N 28°06' W 015°23'0 0.9
2017-Apr-17 17:30N 28°06' W 015°23'0 0.7
2017-Apr-17 17:00N 28°07' W 015°23'0 0.9
2017-Apr-17 16:30N 28°07' W 015°22'4 8.8
2017-Apr-17 16:00N 28°11' W 015°21'611.9
2017-Apr-17 15:30N 28°17' W 015°20'612.9
2017-Apr-17 15:00N 28°23' W 015°18'1313.1
2017-Apr-17 14:00N 28°36' W 015°13'713.0
2017-Apr-17 13:30N 28°42' W 015°11'613.0
2017-Apr-17 13:01N 28°48' W 015°09'712.9
2017-Apr-17 12:30N 28°54' W 015°07'612.8
2017-Apr-17 12:00N 29°01' W 015°05'612.9
2017-Apr-17 11:30N 29°07' W 015°03'713.1
2017-Apr-17 11:00N 29°13' W 015°01'713.3
2017-Apr-17 10:31N 29°19' W 014°59'713.1
2017-Apr-17 10:00N 29°26' W 014°56'612.9
2017-Apr-17 09:30N 29°32' W 014°54'612.7
2017-Apr-17 09:00N 29°38' W 014°52'612.6
2017-Apr-17 08:30N 29°44' W 014°50'612.7
2017-Apr-17 08:00N 29°50' W 014°48'613.0
2017-Apr-17 07:30N 29°56' W 014°46'613.1
2017-Apr-17 07:00N 30°03' W 014°44'713.1
2017-Apr-17 06:30N 30°09' W 014°42'713.2
2017-Apr-17 06:00N 30°15' W 014°39'713.1
2017-Apr-17 05:30N 30°21' W 014°37'713.2
2017-Apr-17 05:00N 30°28' W 014°35'713.1
2017-Apr-17 04:30N 30°34' W 014°33'713.2
2017-Apr-17 04:00N 30°40' W 014°31'1113.4
2017-Apr-17 03:09N 30°51' W 014°27'213.5
2017-Apr-17 03:00N 30°53' W 014°26'713.4
2017-Apr-17 02:30N 30°59' W 014°24'713.4
2017-Apr-17 02:00N 31°06' W 014°22'713.5
2017-Apr-17 01:30N 31°12' W 014°20'713.4
2017-Apr-17 01:00N 31°19' W 014°17'713.3
2017-Apr-17 00:30N 31°25' W 014°15'813.4
2017-Apr-16 23:56N 31°33' W 014°12'813.4
2017-Apr-16 23:20N 31°40' W 014°10'813.3
2017-Apr-16 22:46N 31°47' W 014°07'413.1
2017-Apr-16 22:29N 31°51' W 014°06'713.2
2017-Apr-16 21:58N 31°57' W 014°03'713.1
2017-Apr-16 21:27N 32°04' W 014°01'913.1
2017-Apr-16 20:47N 32°12' W 013°58'413.1
2017-Apr-16 20:30N 32°16' W 013°57'1413.2
2017-Apr-16 19:28N 32°29' W 013°53'613.0
2017-Apr-16 19:00N 32°35' W 013°51'612.8
2017-Apr-16 18:30N 32°41' W 013°48'612.9
2017-Apr-16 18:00N 32°47' W 013°46'612.7
2017-Apr-16 17:30N 32°53' W 013°44'612.7
2017-Apr-16 17:00N 32°59' W 013°42'612.6
2017-Apr-16 16:30N 33°05' W 013°40'612.6
2017-Apr-16 16:00N 33°11' W 013°37'1412.4
2017-Apr-16 14:51N 33°25' W 013°33'412.1
2017-Apr-16 14:30N 33°29' W 013°31'1212.2
2017-Apr-16 13:30N 33°41' W 013°27'612.4
2017-Apr-16 13:01N 33°47' W 013°25'612.6
2017-Apr-16 12:30N 33°53' W 013°23'2012.6
2017-Apr-16 10:56N 34°12' W 013°16'612.6
2017-Apr-16 10:26N 34°18' W 013°15'612.8
2017-Apr-16 10:00N 34°23' W 013°13'712.9
2017-Apr-16 09:27N 34°30' W 013°11'2212.9
2017-Apr-16 07:46N 34°51' W 013°05'513.2
2017-Apr-16 07:25N 34°56' W 013°04'513.3
2017-Apr-16 07:00N 35°01' W 013°02'713.4
2017-Apr-16 06:30N 35°08' W 013°00'713.4
2017-Apr-16 06:00N 35°14' W 012°58'713.1
2017-Apr-16 05:30N 35°21' W 012°57'713.2
2017-Apr-16 05:00N 35°27' W 012°55'713.4
2017-Apr-16 04:30N 35°34' W 012°52'3213.3
2017-Apr-16 02:07N 36°05' W 012°44'513.2
2017-Apr-16 01:44N 36°09' W 012°42'313.1
2017-Apr-16 01:30N 36°12' W 012°41'713.0
2017-Apr-16 01:00N 36°19' W 012°40'713.2
2017-Apr-16 00:30N 36°25' W 012°38'2013.3
2017-Apr-15 22:59N 36°45' W 012°32'713.3
2017-Apr-15 22:29N 36°51' W 012°30'1213.4
2017-Apr-15 21:35N 37°03' W 012°27'113.6
2017-Apr-15 21:30N 37°04' W 012°26'713.2
2017-Apr-15 20:56N 37°11' W 012°24'613.1
2017-Apr-15 20:28N 37°17' W 012°22'713.6
2017-Apr-15 19:56N 37°24' W 012°20'613.6
2017-Apr-15 19:29N 37°30' W 012°18'613.4
2017-Apr-15 19:00N 37°37' W 012°16'813.2
2017-Apr-15 18:26N 37°44' W 012°14'1312.9
2017-Apr-15 17:26N 37°57' W 012°11'612.9
2017-Apr-15 17:00N 38°02' W 012°09'712.9
2017-Apr-15 16:28N 38°09' W 012°07'65112.9
2017-Apr-13 13:59N 48°11' W 006°27'2613.2
2017-Apr-13 11:59N 48°33' W 006°06'2814.3
2017-Apr-13 09:59N 48°55' W 005°39'714.2
2017-Apr-13 09:29N 48°60' W 005°31'713.9
2017-Apr-13 08:59N 49°03' W 005°22'3112.4
2017-Apr-13 06:28N 49°19' W 004°40'511.3
2017-Apr-13 05:59N 49°22' W 004°33'611.2
2017-Apr-13 05:26N 49°25' W 004°25'1811.8
2017-Apr-13 03:54N 49°34' W 004°01'1613.2
2017-Apr-13 02:39N 49°42' W 003°38'314.0
2017-Apr-13 02:27N 49°43' W 003°34'614.3
2017-Apr-13 02:00N 49°46' W 003°26'714.5
2017-Apr-13 01:30N 49°50' W 003°16'714.6
2017-Apr-13 01:00N 49°53' W 003°06'714.1
2017-Apr-13 00:30N 49°56' W 002°56'713.5
2017-Apr-13 00:00N 49°59' W 002°46'712.7
2017-Apr-12 23:27N 50°01' W 002°36'8311.2
2017-Apr-12 16:03N 50°24' W 000°32'214.3
2017-Apr-12 15:54N 50°25' W 000°29'514.0
2017-Apr-12 15:30N 50°27' W 000°21'713.7
2017-Apr-12 15:00N 50°29' W 000°10'1313.1
2017-Apr-12 14:00N 50°33' E 000°09'612.7
2017-Apr-12 13:31N 50°35' E 000°19'612.3
2017-Apr-12 13:00N 50°37' E 000°28'611.8
2017-Apr-12 12:30N 50°39' E 000°37'611.3
2017-Apr-12 12:00N 50°42' E 000°44'511.0
2017-Apr-12 11:30N 50°45' E 000°51'510.8
2017-Apr-12 11:00N 50°48' E 000°58'611.1
2017-Apr-12 10:29N 50°52' E 001°05'611.8
2017-Apr-12 09:58N 50°56' E 001°12'612.8
2017-Apr-12 09:30N 51°00' E 001°19'714.2
2017-Apr-12 09:00N 51°05' E 001°28'815.7
2017-Apr-12 08:30N 51°10' E 001°37'815.5
2017-Apr-12 08:00N 51°17' E 001°42'714.3
2017-Apr-12 07:30N 51°24' E 001°45'713.3
2017-Apr-12 07:00N 51°31' E 001°45'612.6
2017-Apr-12 06:30N 51°37' E 001°45'612.1
2017-Apr-12 06:00N 51°43' E 001°44'611.7
2017-Apr-12 05:30N 51°49' E 001°43'5 9.6
2017-Apr-12 05:00N 51°48' E 001°36'612.4
2017-Apr-12 04:30N 51°43' E 001°29'713.7
2017-Apr-12 04:00N 51°38' E 001°22'714.0
2017-Apr-12 03:30N 51°34' E 001°13'713.2
2017-Apr-12 03:00N 51°31' E 001°04'611.8
2017-Apr-12 02:30N 51°29' E 000°54'612.7
2017-Apr-12 02:00N 51°30' E 000°44'611.9
2017-Apr-12 01:30N 51°30' E 000°35'5 9.2
2017-Apr-12 01:00N 51°29' E 000°28'4 7.0
2017-Apr-12 00:30N 51°27' E 000°23'2 3.8
2017-Apr-12 00:00N 51°27' E 000°20'0 0.6
2017-Apr-11 23:30N 51°27' E 000°21'0 0.6
2017-Apr-11 23:01N 51°27' E 000°21'0 0.5
2017-Apr-11 22:30N 51°28' E 000°21'0 0.0
2017-Apr-11 22:00N 51°28' E 000°21'0 0.0
2017-Apr-11 21:30N 51°28' E 000°21'0 0.0
2017-Apr-11 21:00N 51°28' E 000°21'0 0.0
2017-Apr-11 20:30N 51°28' E 000°21'0 0.0
2017-Apr-11 20:00N 51°28' E 000°21'0 0.0
2017-Apr-11 19:30N 51°28' E 000°21'0 0.0
2017-Apr-11 19:00N 51°28' E 000°21'0 0.0
2017-Apr-11 18:30N 51°28' E 000°21'0 0.0
2017-Apr-11 18:00N 51°28' E 000°21'0 0.0
2017-Apr-11 17:30N 51°28' E 000°21'0 0.0
2017-Apr-11 17:00N 51°28' E 000°21'  

Dump ship's entire track history